sensor_id;sensor_type;location;lat;lon;timestamp;pressure;altitude;pressure_sealevel;temperature;humidity
56681;BME280;42558;52.388;13.390;2022-11-02T00:01:17;101431.68;;;7.28;100.00
56681;BME280;42558;52.388;13.390;2022-11-02T00:03:48;101431.41;;;7.30;100.00
56681;BME280;42558;52.388;13.390;2022-11-02T00:06:18;101432.98;;;7.26;100.00
56681;BME280;42558;52.388;13.390;2022-11-02T00:08:48;101431.16;;;7.29;100.00
56681;BME280;42558;52.388;13.390;2022-11-02T00:11:18;101434.36;;;7.30;100.00
56681;BME280;42558;52.388;13.390;2022-11-02T00:13:48;101430.70;;;7.35;100.00
56681;BME280;42558;52.388;13.390;2022-11-02T00:16:19;101434.89;;;7.25;100.00
56681;BME280;42558;52.388;13.390;2022-11-02T00:18:54;101433.95;;;7.19;100.00
56681;BME280;42558;52.388;13.390;2022-11-02T00:21:26;101437.44;;;7.19;100.00
56681;BME280;42558;52.388;13.390;2022-11-02T00:23:57;101439.05;;;7.15;100.00
56681;BME280;42558;52.388;13.390;2022-11-02T00:26:31;101434.37;;;7.17;100.00
56681;BME280;42558;52.388;13.390;2022-11-02T00:29:06;101431.70;;;7.25;100.00
56681;BME280;42558;52.388;13.390;2022-11-02T00:31:36;101430.67;;;7.29;100.00
56681;BME280;42558;52.388;13.390;2022-11-02T00:34:09;101430.77;;;7.28;100.00
56681;BME280;42558;52.388;13.390;2022-11-02T00:36:38;101433.90;;;7.27;100.00
56681;BME280;42558;52.388;13.390;2022-11-02T00:39:08;101439.23;;;7.29;100.00
56681;BME280;42558;52.388;13.390;2022-11-02T00:41:38;101439.23;;;7.25;100.00
56681;BME280;42558;52.388;13.390;2022-11-02T00:44:08;101436.10;;;7.25;100.00
56681;BME280;42558;52.388;13.390;2022-11-02T00:46:37;101430.98;;;7.23;100.00
56681;BME280;42558;52.388;13.390;2022-11-02T00:49:07;101430.89;;;7.13;100.00
56681;BME280;42558;52.388;13.390;2022-11-02T00:51:37;101437.06;;;7.09;100.00
56681;BME280;42558;52.388;13.390;2022-11-02T00:54:07;101438.91;;;7.07;100.00
56681;BME280;42558;52.388;13.390;2022-11-02T00:56:36;101440.34;;;7.04;100.00
56681;BME280;42558;52.388;13.390;2022-11-02T00:59:07;101443.90;;;7.05;100.00
56681;BME280;42558;52.388;13.390;2022-11-02T01:01:37;101443.34;;;7.00;100.00
56681;BME280;42558;52.388;13.390;2022-11-02T01:04:07;101439.45;;;6.98;100.00
56681;BME280;42558;52.388;13.390;2022-11-02T01:06:37;101436.58;;;7.01;100.00
56681;BME280;42558;52.388;13.390;2022-11-02T01:09:08;101433.55;;;7.00;100.00
56681;BME280;42558;52.388;13.390;2022-11-02T01:11:40;101427.55;;;6.98;100.00
56681;BME280;42558;52.388;13.390;2022-11-02T01:14:10;101429.20;;;7.00;100.00
56681;BME280;42558;52.388;13.390;2022-11-02T01:16:40;101431.11;;;6.95;100.00
56681;BME280;42558;52.388;13.390;2022-11-02T01:19:10;101429.88;;;6.91;100.00
56681;BME280;42558;52.388;13.390;2022-11-02T01:21:40;101437.39;;;6.87;100.00
56681;BME280;42558;52.388;13.390;2022-11-02T01:24:10;101436.49;;;6.86;100.00
56681;BME280;42558;52.388;13.390;2022-11-02T01:26:40;101436.66;;;6.81;100.00
56681;BME280;42558;52.388;13.390;2022-11-02T01:29:09;101437.09;;;6.78;100.00
56681;BME280;42558;52.388;13.390;2022-11-02T01:31:39;101432.86;;;6.77;100.00
56681;BME280;42558;52.388;13.390;2022-11-02T01:34:10;101434.61;;;6.78;100.00
56681;BME280;42558;52.388;13.390;2022-11-02T01:36:43;101433.98;;;6.80;100.00
56681;BME280;42558;52.388;13.390;2022-11-02T01:39:14;101438.50;;;6.74;100.00
56681;BME280;42558;52.388;13.390;2022-11-02T01:41:44;101441.60;;;6.69;100.00
56681;BME280;42558;52.388;13.390;2022-11-02T01:44:34;101428.81;;;6.64;100.00
56681;BME280;42558;52.388;13.390;2022-11-02T01:47:17;101426.60;;;6.66;100.00
56681;BME280;42558;52.388;13.390;2022-11-02T01:49:54;101419.42;;;6.74;100.00
56681;BME280;42558;52.388;13.390;2022-11-02T01:52:34;101416.83;;;6.78;100.00
56681;BME280;42558;52.388;13.390;2022-11-02T01:55:27;101414.35;;;6.74;100.00
56681;BME280;42558;52.388;13.390;2022-11-02T01:58:10;101412.08;;;6.74;100.00
56681;BME280;42558;52.388;13.390;2022-11-02T02:00:38;101409.59;;;6.76;100.00
56681;BME280;42558;52.388;13.390;2022-11-02T02:03:13;101411.95;;;6.75;100.00
56681;BME280;42558;52.388;13.390;2022-11-02T02:06:09;101411.74;;;6.74;100.00
56681;BME280;42558;52.388;13.390;2022-11-02T02:08:45;101411.51;;;6.64;100.00
56681;BME280;42558;52.388;13.390;2022-11-02T02:11:35;101416.17;;;6.58;100.00
56681;BME280;42558;52.388;13.390;2022-11-02T02:14:23;101413.24;;;6.55;100.00
56681;BME280;42558;52.388;13.390;2022-11-02T02:17:46;101408.48;;;6.62;100.00
56681;BME280;42558;52.388;13.390;2022-11-02T02:23:39;101406.66;;;6.48;100.00
56681;BME280;42558;52.388;13.390;2022-11-02T02:26:45;101406.39;;;6.45;100.00
56681;BME280;42558;52.388;13.390;2022-11-02T02:29:29;101402.80;;;6.38;100.00
56681;BME280;42558;52.388;13.390;2022-11-02T02:32:30;101405.60;;;6.39;100.00
56681;BME280;42558;52.388;13.390;2022-11-02T02:35:29;101400.18;;;6.43;100.00
56681;BME280;42558;52.388;13.390;2022-11-02T02:38:12;101400.73;;;6.39;100.00
56681;BME280;42558;52.388;13.390;2022-11-02T02:40:52;101401.44;;;6.35;100.00
56681;BME280;42558;52.388;13.390;2022-11-02T02:43:41;101398.48;;;6.35;100.00
56681;BME280;42558;52.388;13.390;2022-11-02T02:46:22;101392.81;;;6.25;100.00
56681;BME280;42558;52.388;13.390;2022-11-02T02:48:55;101395.23;;;6.20;100.00
56681;BME280;42558;52.388;13.390;2022-11-02T02:51:30;101393.46;;;6.19;100.00
56681;BME280;42558;52.388;13.390;2022-11-02T02:54:10;101393.34;;;6.24;100.00
56681;BME280;42558;52.388;13.390;2022-11-02T02:56:54;101394.96;;;6.22;100.00
56681;BME280;42558;52.388;13.390;2022-11-02T02:59:38;101393.76;;;6.22;100.00
56681;BME280;42558;52.388;13.390;2022-11-02T03:02:25;101390.73;;;6.30;100.00
56681;BME280;42558;52.388;13.390;2022-11-02T03:04:57;101395.41;;;6.33;100.00
56681;BME280;42558;52.388;13.390;2022-11-02T03:07:33;101393.12;;;6.37;100.00
56681;BME280;42558;52.388;13.390;2022-11-02T03:10:28;101391.79;;;6.47;100.00
56681;BME280;42558;52.388;13.390;2022-11-02T03:13:35;101397.34;;;6.42;100.00
56681;BME280;42558;52.388;13.390;2022-11-02T03:19:26;101387.30;;;6.40;100.00
56681;BME280;42558;52.388;13.390;2022-11-02T03:25:23;101394.30;;;6.32;100.00
56681;BME280;42558;52.388;13.390;2022-11-02T03:35:00;101394.11;;;6.40;100.00
56681;BME280;42558;52.388;13.390;2022-11-02T03:37:28;101391.08;;;6.42;100.00
56681;BME280;42558;52.388;13.390;2022-11-02T03:42:43;101399.07;;;6.37;100.00
56681;BME280;42558;52.388;13.390;2022-11-02T03:45:19;101393.11;;;6.37;100.00
56681;BME280;42558;52.388;13.390;2022-11-02T03:47:58;101398.29;;;6.39;100.00
56681;BME280;42558;52.388;13.390;2022-11-02T03:50:29;101397.48;;;6.37;100.00
56681;BME280;42558;52.388;13.390;2022-11-02T03:53:10;101395.04;;;6.36;100.00
56681;BME280;42558;52.388;13.390;2022-11-02T03:55:50;101395.61;;;6.38;100.00
56681;BME280;42558;52.388;13.390;2022-11-02T03:58:21;101391.41;;;6.37;100.00
56681;BME280;42558;52.388;13.390;2022-11-02T04:01:03;101389.71;;;6.35;100.00
56681;BME280;42558;52.388;13.390;2022-11-02T04:03:42;101392.14;;;6.30;100.00
56681;BME280;42558;52.388;13.390;2022-11-02T04:06:11;101388.00;;;6.31;100.00
56681;BME280;42558;52.388;13.390;2022-11-02T04:08:45;101389.77;;;6.31;100.00
56681;BME280;42558;52.388;13.390;2022-11-02T04:11:14;101387.63;;;6.30;100.00
56681;BME280;42558;52.388;13.390;2022-11-02T04:14:08;101384.41;;;6.20;100.00
56681;BME280;42558;52.388;13.390;2022-11-02T04:16:53;101384.52;;;6.23;100.00
56681;BME280;42558;52.388;13.390;2022-11-02T04:19:43;101391.45;;;6.30;100.00
56681;BME280;42558;52.388;13.390;2022-11-02T04:22:17;101391.86;;;6.27;100.00
56681;BME280;42558;52.388;13.390;2022-11-02T04:25:11;101386.75;;;6.30;100.00
56681;BME280;42558;52.388;13.390;2022-11-02T04:27:52;101385.50;;;6.30;100.00
56681;BME280;42558;52.388;13.390;2022-11-02T04:30:22;101383.06;;;6.25;100.00
56681;BME280;42558;52.388;13.390;2022-11-02T04:32:50;101385.56;;;6.26;100.00
56681;BME280;42558;52.388;13.390;2022-11-02T04:35:38;101386.26;;;6.18;100.00
56681;BME280;42558;52.388;13.390;2022-11-02T04:38:08;101387.73;;;6.15;100.00
56681;BME280;42558;52.388;13.390;2022-11-02T04:40:59;101389.96;;;6.15;100.00
56681;BME280;42558;52.388;13.390;2022-11-02T04:43:46;101399.16;;;6.09;100.00
56681;BME280;42558;52.388;13.390;2022-11-02T04:46:17;101402.70;;;6.07;100.00
56681;BME280;42558;52.388;13.390;2022-11-02T04:48:47;101398.77;;;6.04;100.00
56681;BME280;42558;52.388;13.390;2022-11-02T04:51:19;101397.36;;;6.04;100.00
56681;BME280;42558;52.388;13.390;2022-11-02T04:53:53;101398.09;;;6.01;100.00
56681;BME280;42558;52.388;13.390;2022-11-02T04:56:25;101393.00;;;6.00;100.00
56681;BME280;42558;52.388;13.390;2022-11-02T04:58:56;101390.17;;;5.99;100.00
56681;BME280;42558;52.388;13.390;2022-11-02T05:01:28;101396.33;;;5.96;100.00
56681;BME280;42558;52.388;13.390;2022-11-02T05:03:56;101396.56;;;5.90;100.00
56681;BME280;42558;52.388;13.390;2022-11-02T05:06:24;101399.11;;;5.88;100.00
56681;BME280;42558;52.388;13.390;2022-11-02T05:08:54;101400.14;;;5.88;100.00
56681;BME280;42558;52.388;13.390;2022-11-02T05:11:24;101403.35;;;5.93;100.00
56681;BME280;42558;52.388;13.390;2022-11-02T05:13:54;101396.42;;;5.94;100.00
56681;BME280;42558;52.388;13.390;2022-11-02T05:16:24;101392.54;;;6.01;100.00
56681;BME280;42558;52.388;13.390;2022-11-02T05:18:53;101396.52;;;6.05;100.00
56681;BME280;42558;52.388;13.390;2022-11-02T05:21:23;101394.95;;;6.05;100.00
56681;BME280;42558;52.388;13.390;2022-11-02T05:23:53;101395.13;;;6.09;100.00
56681;BME280;42558;52.388;13.390;2022-11-02T05:26:22;101394.60;;;6.13;100.00
56681;BME280;42558;52.388;13.390;2022-11-02T05:28:52;101396.40;;;6.14;100.00
56681;BME280;42558;52.388;13.390;2022-11-02T05:31:22;101394.61;;;6.22;100.00
56681;BME280;42558;52.388;13.390;2022-11-02T05:33:52;101391.83;;;6.26;100.00
56681;BME280;42558;52.388;13.390;2022-11-02T05:36:21;101390.54;;;6.29;100.00
56681;BME280;42558;52.388;13.390;2022-11-02T05:38:55;101391.38;;;6.28;100.00
56681;BME280;42558;52.388;13.390;2022-11-02T05:41:22;101393.66;;;6.28;100.00
56681;BME280;42558;52.388;13.390;2022-11-02T05:43:52;101390.05;;;6.34;100.00
56681;BME280;42558;52.388;13.390;2022-11-02T05:46:21;101391.30;;;6.30;100.00
56681;BME280;42558;52.388;13.390;2022-11-02T05:48:51;101394.27;;;6.26;100.00
56681;BME280;42558;52.388;13.390;2022-11-02T05:51:21;101398.58;;;6.21;100.00
56681;BME280;42558;52.388;13.390;2022-11-02T05:53:51;101397.05;;;6.13;100.00
56681;BME280;42558;52.388;13.390;2022-11-02T05:56:20;101392.82;;;6.16;100.00
56681;BME280;42558;52.388;13.390;2022-11-02T05:58:54;101389.39;;;6.18;100.00
56681;BME280;42558;52.388;13.390;2022-11-02T06:01:22;101391.53;;;6.11;100.00
56681;BME280;42558;52.388;13.390;2022-11-02T06:03:52;101394.84;;;6.10;100.00
56681;BME280;42558;52.388;13.390;2022-11-02T06:06:22;101403.45;;;6.08;100.00
56681;BME280;42558;52.388;13.390;2022-11-02T06:08:52;101406.20;;;6.07;100.00
56681;BME280;42558;52.388;13.390;2022-11-02T06:11:21;101395.67;;;6.05;100.00
56681;BME280;42558;52.388;13.390;2022-11-02T06:13:51;101394.77;;;6.05;100.00
56681;BME280;42558;52.388;13.390;2022-11-02T06:16:21;101392.60;;;6.15;100.00
56681;BME280;42558;52.388;13.390;2022-11-02T06:18:51;101389.19;;;6.26;100.00
56681;BME280;42558;52.388;13.390;2022-11-02T06:21:21;101389.70;;;6.35;100.00
56681;BME280;42558;52.388;13.390;2022-11-02T06:23:51;101390.91;;;6.38;100.00
56681;BME280;42558;52.388;13.390;2022-11-02T06:26:20;101388.27;;;6.42;100.00
56681;BME280;42558;52.388;13.390;2022-11-02T06:28:50;101391.57;;;6.50;100.00
56681;BME280;42558;52.388;13.390;2022-11-02T06:31:20;101393.59;;;6.53;100.00
56681;BME280;42558;52.388;13.390;2022-11-02T06:33:50;101394.52;;;6.54;100.00
56681;BME280;42558;52.388;13.390;2022-11-02T06:36:20;101394.25;;;6.60;100.00
56681;BME280;42558;52.388;13.390;2022-11-02T06:38:50;101395.02;;;6.79;100.00
56681;BME280;42558;52.388;13.390;2022-11-02T06:41:20;101394.48;;;6.79;100.00
56681;BME280;42558;52.388;13.390;2022-11-02T06:43:49;101401.81;;;6.79;100.00
56681;BME280;42558;52.388;13.390;2022-11-02T06:46:19;101405.63;;;6.78;100.00
56681;BME280;42558;52.388;13.390;2022-11-02T06:48:49;101406.71;;;6.79;100.00
56681;BME280;42558;52.388;13.390;2022-11-02T06:51:18;101408.69;;;6.76;100.00
56681;BME280;42558;52.388;13.390;2022-11-02T06:53:48;101407.64;;;6.76;100.00
56681;BME280;42558;52.388;13.390;2022-11-02T06:56:18;101407.22;;;6.88;100.00
56681;BME280;42558;52.388;13.390;2022-11-02T06:58:48;101411.09;;;6.89;100.00
56681;BME280;42558;52.388;13.390;2022-11-02T07:01:18;101412.86;;;7.02;100.00
56681;BME280;42558;52.388;13.390;2022-11-02T07:03:48;101415.80;;;6.97;100.00
56681;BME280;42558;52.388;13.390;2022-11-02T07:06:18;101418.48;;;7.13;100.00
56681;BME280;42558;52.388;13.390;2022-11-02T07:08:48;101421.52;;;7.19;100.00
56681;BME280;42558;52.388;13.390;2022-11-02T07:11:18;101422.84;;;7.26;100.00
56681;BME280;42558;52.388;13.390;2022-11-02T07:13:49;101419.79;;;7.29;100.00
56681;BME280;42558;52.388;13.390;2022-11-02T07:16:18;101420.48;;;7.33;100.00
56681;BME280;42558;52.388;13.390;2022-11-02T07:18:48;101421.98;;;7.45;100.00
56681;BME280;42558;52.388;13.390;2022-11-02T07:21:18;101421.91;;;7.53;100.00
56681;BME280;42558;52.388;13.390;2022-11-02T07:23:49;101423.35;;;7.59;100.00
56681;BME280;42558;52.388;13.390;2022-11-02T07:26:18;101424.97;;;7.60;100.00
56681;BME280;42558;52.388;13.390;2022-11-02T07:28:48;101421.19;;;7.72;100.00
56681;BME280;42558;52.388;13.390;2022-11-02T07:31:21;101424.38;;;7.77;100.00
56681;BME280;42558;52.388;13.390;2022-11-02T07:33:49;101418.04;;;7.76;100.00
56681;BME280;42558;52.388;13.390;2022-11-02T07:36:18;101423.46;;;7.86;100.00
56681;BME280;42558;52.388;13.390;2022-11-02T07:38:48;101428.33;;;7.95;100.00
56681;BME280;42558;52.388;13.390;2022-11-02T07:41:18;101424.16;;;8.12;100.00
56681;BME280;42558;52.388;13.390;2022-11-02T07:43:48;101421.73;;;8.17;100.00
56681;BME280;42558;52.388;13.390;2022-11-02T07:46:18;101425.88;;;8.21;100.00
56681;BME280;42558;52.388;13.390;2022-11-02T07:48:48;101434.12;;;8.32;100.00
56681;BME280;42558;52.388;13.390;2022-11-02T07:51:17;101430.39;;;8.35;100.00
56681;BME280;42558;52.388;13.390;2022-11-02T07:53:47;101431.45;;;8.45;100.00
56681;BME280;42558;52.388;13.390;2022-11-02T07:56:17;101433.75;;;8.56;100.00
56681;BME280;42558;52.388;13.390;2022-11-02T07:58:46;101435.41;;;8.64;100.00
56681;BME280;42558;52.388;13.390;2022-11-02T08:01:16;101436.02;;;8.72;100.00
56681;BME280;42558;52.388;13.390;2022-11-02T08:03:46;101437.17;;;8.87;100.00
56681;BME280;42558;52.388;13.390;2022-11-02T08:06:16;101440.66;;;9.03;100.00
56681;BME280;42558;52.388;13.390;2022-11-02T08:08:46;101438.21;;;9.32;100.00
56681;BME280;42558;52.388;13.390;2022-11-02T08:11:15;101438.39;;;9.44;100.00
56681;BME280;42558;52.388;13.390;2022-11-02T08:13:45;101435.13;;;9.35;100.00
56681;BME280;42558;52.388;13.390;2022-11-02T08:16:15;101431.52;;;9.31;100.00
56681;BME280;42558;52.388;13.390;2022-11-02T08:18:45;101436.48;;;9.39;100.00
56681;BME280;42558;52.388;13.390;2022-11-02T08:21:14;101441.79;;;9.41;100.00
56681;BME280;42558;52.388;13.390;2022-11-02T08:23:44;101448.67;;;9.48;100.00
56681;BME280;42558;52.388;13.390;2022-11-02T08:26:14;101444.75;;;9.71;100.00
56681;BME280;42558;52.388;13.390;2022-11-02T08:28:43;101442.99;;;9.77;100.00
56681;BME280;42558;52.388;13.390;2022-11-02T08:31:16;101441.84;;;9.98;100.00
56681;BME280;42558;52.388;13.390;2022-11-02T08:33:45;101446.04;;;10.30;100.00
56681;BME280;42558;52.388;13.390;2022-11-02T08:36:15;101446.73;;;10.17;100.00
56681;BME280;42558;52.388;13.390;2022-11-02T08:38:45;101446.05;;;10.05;100.00
56681;BME280;42558;52.388;13.390;2022-11-02T08:41:15;101447.09;;;9.98;100.00
56681;BME280;42558;52.388;13.390;2022-11-02T08:43:47;101449.61;;;9.87;100.00
56681;BME280;42558;52.388;13.390;2022-11-02T08:46:17;101452.44;;;9.88;100.00
56681;BME280;42558;52.388;13.390;2022-11-02T08:48:47;101449.91;;;9.85;100.00
56681;BME280;42558;52.388;13.390;2022-11-02T08:51:17;101448.83;;;9.85;100.00
56681;BME280;42558;52.388;13.390;2022-11-02T08:53:47;101446.40;;;9.86;100.00
56681;BME280;42558;52.388;13.390;2022-11-02T08:56:20;101447.24;;;9.91;100.00
56681;BME280;42558;52.388;13.390;2022-11-02T08:58:47;101444.80;;;9.97;100.00
56681;BME280;42558;52.388;13.390;2022-11-02T09:01:17;101447.11;;;10.12;100.00
56681;BME280;42558;52.388;13.390;2022-11-02T09:03:47;101441.13;;;10.67;100.00
56681;BME280;42558;52.388;13.390;2022-11-02T09:06:17;101440.00;;;11.57;99.94
56681;BME280;42558;52.388;13.390;2022-11-02T09:08:47;101438.80;;;11.75;98.54
56681;BME280;42558;52.388;13.390;2022-11-02T09:11:20;101442.20;;;11.45;99.65
56681;BME280;42558;52.388;13.390;2022-11-02T09:13:47;101442.81;;;11.15;99.83
56681;BME280;42558;52.388;13.390;2022-11-02T09:16:25;101442.66;;;11.02;100.00
56681;BME280;42558;52.388;13.390;2022-11-02T09:18:54;101437.60;;;10.96;100.00
56681;BME280;42558;52.388;13.390;2022-11-02T09:21:24;101439.42;;;10.83;100.00
56681;BME280;42558;52.388;13.390;2022-11-02T09:23:51;101441.52;;;10.90;100.00
56681;BME280;42558;52.388;13.390;2022-11-02T09:26:19;101448.41;;;10.99;100.00
56681;BME280;42558;52.388;13.390;2022-11-02T09:28:48;101450.09;;;11.27;100.00
56681;BME280;42558;52.388;13.390;2022-11-02T09:31:18;101447.77;;;11.92;96.25
56681;BME280;42558;52.388;13.390;2022-11-02T09:33:48;101441.41;;;12.11;93.90
56681;BME280;42558;52.388;13.390;2022-11-02T09:36:18;101446.77;;;12.34;93.66
56681;BME280;42558;52.388;13.390;2022-11-02T09:38:47;101443.31;;;12.38;91.41
56681;BME280;42558;52.388;13.390;2022-11-02T09:44:19;101451.98;;;12.10;93.09
56681;BME280;42558;52.388;13.390;2022-11-02T09:46:50;101455.02;;;12.03;94.50
56681;BME280;42558;52.388;13.390;2022-11-02T09:49:42;101454.41;;;12.17;92.06
56681;BME280;42558;52.388;13.390;2022-11-02T09:52:24;101454.45;;;12.29;91.55
56681;BME280;42558;52.388;13.390;2022-11-02T09:54:59;101458.36;;;12.85;89.23
56681;BME280;42558;52.388;13.390;2022-11-02T09:57:32;101454.98;;;12.83;89.02
56681;BME280;42558;52.388;13.390;2022-11-02T10:00:00;101459.73;;;13.04;87.92
56681;BME280;42558;52.388;13.390;2022-11-02T10:11:43;101451.48;;;15.06;79.79
56681;BME280;42558;52.388;13.390;2022-11-02T10:14:34;101452.58;;;14.26;79.50
56681;BME280;42558;52.388;13.390;2022-11-02T10:17:34;101457.21;;;13.80;80.57
56681;BME280;42558;52.388;13.390;2022-11-02T10:20:43;101454.14;;;14.05;82.47
56681;BME280;42558;52.388;13.390;2022-11-02T10:23:33;101456.49;;;14.29;80.18
56681;BME280;42558;52.388;13.390;2022-11-02T10:26:04;101444.02;;;15.89;73.54
56681;BME280;42558;52.388;13.390;2022-11-02T10:28:38;101446.27;;;16.41;69.43
56681;BME280;42558;52.388;13.390;2022-11-02T10:33:53;101445.40;;;16.32;69.13
56681;BME280;42558;52.388;13.390;2022-11-02T10:40:02;101455.83;;;14.72;74.43
56681;BME280;42558;52.388;13.390;2022-11-02T10:49:19;101453.23;;;16.54;69.20
56681;BME280;42558;52.388;13.390;2022-11-02T10:51:52;101454.99;;;15.34;72.23
56681;BME280;42558;52.388;13.390;2022-11-02T10:54:23;101455.40;;;14.84;73.74
56681;BME280;42558;52.388;13.390;2022-11-02T10:57:13;101459.14;;;14.65;77.00
56681;BME280;42558;52.388;13.390;2022-11-02T11:00:31;101456.05;;;14.38;75.81
56681;BME280;42558;52.388;13.390;2022-11-02T11:05:37;101459.79;;;14.05;77.33
56681;BME280;42558;52.388;13.390;2022-11-02T11:08:40;101462.10;;;14.07;77.14
56681;BME280;42558;52.388;13.390;2022-11-02T11:11:27;101465.70;;;13.95;77.22
56681;BME280;42558;52.388;13.390;2022-11-02T11:14:14;101470.45;;;13.95;76.77
56681;BME280;42558;52.388;13.390;2022-11-02T11:17:16;101475.02;;;13.91;76.47
56681;BME280;42558;52.388;13.390;2022-11-02T11:20:36;101473.76;;;14.04;76.04
56681;BME280;42558;52.388;13.390;2022-11-02T11:23:22;101478.56;;;14.25;76.92
56681;BME280;42558;52.388;13.390;2022-11-02T11:26:07;101479.34;;;14.15;75.74
56681;BME280;42558;52.388;13.390;2022-11-02T11:28:55;101486.44;;;13.84;76.12
56681;BME280;42558;52.388;13.390;2022-11-02T11:31:25;101489.29;;;13.72;77.46
56681;BME280;42558;52.388;13.390;2022-11-02T11:33:57;101487.92;;;13.62;79.14
56681;BME280;42558;52.388;13.390;2022-11-02T11:36:32;101491.94;;;13.58;79.67
56681;BME280;42558;52.388;13.390;2022-11-02T11:39:26;101494.70;;;13.53;79.19
56681;BME280;42558;52.388;13.390;2022-11-02T11:41:57;101490.48;;;13.56;79.45
56681;BME280;42558;52.388;13.390;2022-11-02T11:44:29;101489.22;;;13.53;77.69
56681;BME280;42558;52.388;13.390;2022-11-02T11:46:59;101488.14;;;13.51;77.95
56681;BME280;42558;52.388;13.390;2022-11-02T11:49:34;101488.83;;;13.51;76.51
56681;BME280;42558;52.388;13.390;2022-11-02T11:52:29;101489.83;;;13.58;78.29
56681;BME280;42558;52.388;13.390;2022-11-02T11:55:24;101481.37;;;13.61;78.92
56681;BME280;42558;52.388;13.390;2022-11-02T11:58:12;101479.69;;;13.67;79.11
56681;BME280;42558;52.388;13.390;2022-11-02T12:00:42;101473.73;;;13.71;78.64
56681;BME280;42558;52.388;13.390;2022-11-02T12:03:12;101477.97;;;13.71;79.03
56681;BME280;42558;52.388;13.390;2022-11-02T12:06:06;101476.98;;;13.64;77.98
56681;BME280;42558;52.388;13.390;2022-11-02T12:14:42;101474.24;;;13.43;76.13
56681;BME280;42558;52.388;13.390;2022-11-02T12:17:25;101476.77;;;13.34;77.56
56681;BME280;42558;52.388;13.390;2022-11-02T12:23:34;101479.67;;;13.26;77.56
56681;BME280;42558;52.388;13.390;2022-11-02T12:29:37;101478.14;;;13.30;77.82
56681;BME280;42558;52.388;13.390;2022-11-02T12:42:08;101476.38;;;13.31;74.33
56681;BME280;42558;52.388;13.390;2022-11-02T12:47:13;101480.41;;;13.29;74.05
56681;BME280;42558;52.388;13.390;2022-11-02T12:50:12;101483.03;;;13.26;75.75
56681;BME280;42558;52.388;13.390;2022-11-02T12:56:02;101486.98;;;13.44;73.48
56681;BME280;42558;52.388;13.390;2022-11-02T12:58:38;101483.30;;;13.46;73.75
56681;BME280;42558;52.388;13.390;2022-11-02T13:01:36;101484.53;;;13.45;71.23
56681;BME280;42558;52.388;13.390;2022-11-02T13:07:08;101479.27;;;13.62;67.93
56681;BME280;42558;52.388;13.390;2022-11-02T13:12:23;101466.20;;;13.93;62.29
56681;BME280;42558;52.388;13.390;2022-11-02T13:14:56;101462.91;;;13.98;61.44
56681;BME280;42558;52.388;13.390;2022-11-02T13:17:43;101465.20;;;13.99;61.47
56681;BME280;42558;52.388;13.390;2022-11-02T13:20:20;101468.09;;;14.06;62.56
56681;BME280;42558;52.388;13.390;2022-11-02T13:23:36;101470.50;;;14.15;62.02
56681;BME280;42558;52.388;13.390;2022-11-02T13:26:33;101470.98;;;14.11;59.64
56681;BME280;42558;52.388;13.390;2022-11-02T13:29:48;101470.59;;;14.06;58.53
56681;BME280;42558;52.388;13.390;2022-11-02T13:35:23;101473.83;;;13.96;62.54
56681;BME280;42558;52.388;13.390;2022-11-02T13:38:14;101480.23;;;13.82;61.87
56681;BME280;42558;52.388;13.390;2022-11-02T13:49:50;101479.49;;;13.81;60.74
56681;BME280;42558;52.388;13.390;2022-11-02T13:52:57;101472.96;;;13.82;60.58
56681;BME280;42558;52.388;13.390;2022-11-02T13:55:45;101473.58;;;13.75;62.20
56681;BME280;42558;52.388;13.390;2022-11-02T13:58:33;101479.04;;;13.58;63.59
56681;BME280;42558;52.388;13.390;2022-11-02T14:01:08;101479.54;;;13.42;64.65
56681;BME280;42558;52.388;13.390;2022-11-02T14:03:57;101481.95;;;13.25;65.27
56681;BME280;42558;52.388;13.390;2022-11-02T14:06:43;101483.47;;;13.21;65.52
56681;BME280;42558;52.388;13.390;2022-11-02T14:09:29;101481.16;;;13.21;65.17
56681;BME280;42558;52.388;13.390;2022-11-02T14:25:57;101489.66;;;13.34;62.56
56681;BME280;42558;52.388;13.390;2022-11-02T14:28:33;101489.84;;;13.21;62.57
56681;BME280;42558;52.388;13.390;2022-11-02T14:34:13;101497.64;;;13.14;63.17
56681;BME280;42558;52.388;13.390;2022-11-02T14:37:05;101497.59;;;13.10;62.51
56681;BME280;42558;52.388;13.390;2022-11-02T14:39:52;101497.14;;;13.04;62.61
56681;BME280;42558;52.388;13.390;2022-11-02T14:45:49;101513.98;;;12.98;64.01
56681;BME280;42558;52.388;13.390;2022-11-02T14:48:29;101516.41;;;12.83;64.66
56681;BME280;42558;52.388;13.390;2022-11-02T14:51:05;101521.61;;;12.78;64.80
56681;BME280;42558;52.388;13.390;2022-11-02T14:53:35;101526.33;;;12.75;64.36
56681;BME280;42558;52.388;13.390;2022-11-02T14:56:03;101528.67;;;12.78;64.75
56681;BME280;42558;52.388;13.390;2022-11-02T14:58:53;101531.46;;;12.66;65.59
56681;BME280;42558;52.388;13.390;2022-11-02T15:01:25;101542.31;;;12.62;65.95
56681;BME280;42558;52.388;13.390;2022-11-02T15:03:55;101544.78;;;12.62;66.29
56681;BME280;42558;52.388;13.390;2022-11-02T15:06:27;101548.27;;;12.49;67.16
56681;BME280;42558;52.388;13.390;2022-11-02T15:08:58;101549.39;;;12.43;67.33
56681;BME280;42558;52.388;13.390;2022-11-02T15:25:54;101559.06;;;12.14;66.09
56681;BME280;42558;52.388;13.390;2022-11-02T15:28:31;101562.00;;;12.12;66.03
56681;BME280;42558;52.388;13.390;2022-11-02T15:31:14;101563.00;;;12.00;66.62
56681;BME280;42558;52.388;13.390;2022-11-02T15:33:54;101565.50;;;11.85;67.70